sensor_id;sensor_type;location;lat;lon;timestamp;temperature;humidity
81488;DHT22;70897;52.464;13.428;2023-11-21T14:47:23;9.30;99.90
81488;DHT22;70897;52.464;13.428;2023-11-21T14:50:11;3.70;99.90
81488;DHT22;70897;52.464;13.428;2023-11-21T14:53:32;3.50;99.90
81488;DHT22;70897;52.464;13.428;2023-11-21T14:56:38;3.40;99.90
81488;DHT22;70897;52.464;13.428;2023-11-21T14:59:26;3.30;99.90
81488;DHT22;70897;52.464;13.428;2023-11-21T15:02:11;3.30;99.90
81488;DHT22;70897;52.464;13.428;2023-11-21T15:05:00;3.20;99.90
81488;DHT22;70897;52.464;13.428;2023-11-21T15:07:48;3.20;99.90
81488;DHT22;70897;52.464;13.428;2023-11-21T15:10:34;3.20;99.90
81488;DHT22;70897;52.464;13.428;2023-11-21T15:13:33;3.20;99.90
81488;DHT22;70897;52.464;13.428;2023-11-21T15:16:18;3.20;99.90
81488;DHT22;70897;52.464;13.428;2023-11-21T15:19:07;3.20;99.90
81488;DHT22;70897;52.464;13.428;2023-11-21T15:21:52;3.20;99.90
81488;DHT22;70897;52.464;13.428;2023-11-21T15:24:37;3.10;99.90
81488;DHT22;70897;52.464;13.428;2023-11-21T15:27:22;3.10;99.90
81488;DHT22;70897;52.464;13.428;2023-11-21T15:30:08;3.10;99.90
81488;DHT22;70897;52.464;13.428;2023-11-21T15:32:53;3.10;99.90
81488;DHT22;70897;52.464;13.428;2023-11-21T15:35:41;3.00;99.90
81488;DHT22;70897;52.464;13.428;2023-11-21T15:38:40;3.10;99.90
81488;DHT22;70897;52.464;13.428;2023-11-21T15:41:25;3.10;99.90
81488;DHT22;70897;52.464;13.428;2023-11-21T15:44:11;3.10;99.90
81488;DHT22;70897;52.464;13.428;2023-11-21T15:46:56;3.10;99.90
81488;DHT22;70897;52.464;13.428;2023-11-21T15:49:41;3.10;99.90
81488;DHT22;70897;52.464;13.428;2023-11-21T15:52:28;3.10;99.90
81488;DHT22;70897;52.464;13.428;2023-11-21T15:55:14;3.00;99.90
81488;DHT22;70897;52.464;13.428;2023-11-21T15:57:59;3.00;99.90
81488;DHT22;70897;52.464;13.428;2023-11-21T16:00:47;3.00;99.90
81488;DHT22;70897;52.464;13.428;2023-11-21T16:03:32;2.90;99.90
81488;DHT22;70897;52.464;13.428;2023-11-21T16:06:18;2.90;99.90
81488;DHT22;70897;52.464;13.428;2023-11-21T16:09:03;2.90;99.90
81488;DHT22;70897;52.464;13.428;2023-11-21T16:11:51;2.80;99.90
81488;DHT22;70897;52.464;13.428;2023-11-21T16:14:45;2.90;99.90
81488;DHT22;70897;52.464;13.428;2023-11-21T16:17:32;2.90;99.90
81488;DHT22;70897;52.464;13.428;2023-11-21T16:20:18;2.80;99.90
81488;DHT22;70897;52.464;13.428;2023-11-21T16:23:03;2.80;99.90
81488;DHT22;70897;52.464;13.428;2023-11-21T16:25:48;2.80;99.90
81488;DHT22;70897;52.464;13.428;2023-11-21T16:28:39;2.90;99.90
81488;DHT22;70897;52.464;13.428;2023-11-21T16:31:26;2.70;99.90
81488;DHT22;70897;52.464;13.428;2023-11-21T16:34:13;2.80;99.90
81488;DHT22;70897;52.464;13.428;2023-11-21T16:36:58;2.80;99.90
81488;DHT22;70897;52.464;13.428;2023-11-21T16:39:43;2.90;99.90
81488;DHT22;70897;52.464;13.428;2023-11-21T16:42:28;2.90;99.90
81488;DHT22;70897;52.464;13.428;2023-11-21T16:45:15;2.90;99.90
81488;DHT22;70897;52.464;13.428;2023-11-21T16:48:01;2.90;99.90
81488;DHT22;70897;52.464;13.428;2023-11-21T16:50:47;2.80;99.90
81488;DHT22;70897;52.464;13.428;2023-11-21T16:53:43;2.80;99.90
81488;DHT22;70897;52.464;13.428;2023-11-21T16:56:32;2.80;99.90
81488;DHT22;70897;52.464;13.428;2023-11-21T16:59:17;2.80;99.90
81488;DHT22;70897;52.464;13.428;2023-11-21T17:02:03;2.80;99.90
81488;DHT22;70897;52.464;13.428;2023-11-21T17:04:48;2.70;99.90
81488;DHT22;70897;52.464;13.428;2023-11-21T17:07:34;2.70;99.90
81488;DHT22;70897;52.464;13.428;2023-11-21T17:10:19;2.70;99.90
81488;DHT22;70897;52.464;13.428;2023-11-21T17:13:06;2.70;99.90
81488;DHT22;70897;52.464;13.428;2023-11-21T17:15:51;2.80;99.90
81488;DHT22;70897;52.464;13.428;2023-11-21T17:18:36;2.80;99.90
81488;DHT22;70897;52.464;13.428;2023-11-21T17:21:22;2.80;99.90
81488;DHT22;70897;52.464;13.428;2023-11-21T17:24:07;2.80;99.90
81488;DHT22;70897;52.464;13.428;2023-11-21T17:26:54;2.80;99.90
81488;DHT22;70897;52.464;13.428;2023-11-21T17:29:39;2.80;99.90
81488;DHT22;70897;52.464;13.428;2023-11-21T17:32:24;2.80;99.90
81488;DHT22;70897;52.464;13.428;2023-11-21T17:35:13;2.80;99.90
81488;DHT22;70897;52.464;13.428;2023-11-21T17:38:01;2.80;99.90
81488;DHT22;70897;52.464;13.428;2023-11-21T17:41:19;2.70;99.90
81488;DHT22;70897;52.464;13.428;2023-11-21T17:48:08;2.60;99.90
81488;DHT22;70897;52.464;13.428;2023-11-21T17:50:53;2.60;99.90
81488;DHT22;70897;52.464;13.428;2023-11-21T17:53:38;2.50;99.90
81488;DHT22;70897;52.464;13.428;2023-11-21T17:56:24;2.50;99.90
81488;DHT22;70897;52.464;13.428;2023-11-21T17:59:10;2.60;99.90
81488;DHT22;70897;52.464;13.428;2023-11-21T18:01:55;2.60;99.90
81488;DHT22;70897;52.464;13.428;2023-11-21T18:04:40;2.60;99.90
81488;DHT22;70897;52.464;13.428;2023-11-21T18:07:26;2.60;99.90
81488;DHT22;70897;52.464;13.428;2023-11-21T18:10:10;2.60;99.90
81488;DHT22;70897;52.464;13.428;2023-11-21T18:12:57;2.60;99.90
81488;DHT22;70897;52.464;13.428;2023-11-21T18:15:42;2.60;99.90
81488;DHT22;70897;52.464;13.428;2023-11-21T18:18:31;2.60;99.90
81488;DHT22;70897;52.464;13.428;2023-11-21T18:21:16;2.70;99.90
81488;DHT22;70897;52.464;13.428;2023-11-21T18:24:05;2.70;99.90
81488;DHT22;70897;52.464;13.428;2023-11-21T18:26:51;2.70;99.90
81488;DHT22;70897;52.464;13.428;2023-11-21T18:29:39;2.70;99.90
81488;DHT22;70897;52.464;13.428;2023-11-21T18:32:25;2.60;99.90
81488;DHT22;70897;52.464;13.428;2023-11-21T18:35:10;2.60;99.90
81488;DHT22;70897;52.464;13.428;2023-11-21T18:37:56;2.60;99.90
81488;DHT22;70897;52.464;13.428;2023-11-21T18:40:41;2.70;99.90
81488;DHT22;70897;52.464;13.428;2023-11-21T18:43:26;2.60;99.90
81488;DHT22;70897;52.464;13.428;2023-11-21T18:46:11;2.50;99.90
81488;DHT22;70897;52.464;13.428;2023-11-21T18:48:56;2.50;99.90
81488;DHT22;70897;52.464;13.428;2023-11-21T18:51:45;2.50;99.90
81488;DHT22;70897;52.464;13.428;2023-11-21T18:54:29;2.50;99.90
81488;DHT22;70897;52.464;13.428;2023-11-21T18:57:15;2.50;99.90
81488;DHT22;70897;52.464;13.428;2023-11-21T19:00:00;2.50;99.90
81488;DHT22;70897;52.464;13.428;2023-11-21T19:02:45;2.50;99.90
81488;DHT22;70897;52.464;13.428;2023-11-21T19:05:30;2.50;99.90
81488;DHT22;70897;52.464;13.428;2023-11-21T19:08:16;2.50;99.90
81488;DHT22;70897;52.464;13.428;2023-11-21T19:11:01;2.40;99.90
81488;DHT22;70897;52.464;13.428;2023-11-21T19:13:46;2.30;99.90
81488;DHT22;70897;52.464;13.428;2023-11-21T19:16:33;2.40;99.90
81488;DHT22;70897;52.464;13.428;2023-11-21T19:19:18;2.30;99.90
81488;DHT22;70897;52.464;13.428;2023-11-21T19:35:30;2.30;99.90
81488;DHT22;70897;52.464;13.428;2023-11-21T19:38:18;2.30;99.90
81488;DHT22;70897;52.464;13.428;2023-11-21T19:41:16;2.30;99.90
81488;DHT22;70897;52.464;13.428;2023-11-21T19:44:10;2.20;99.90
81488;DHT22;70897;52.464;13.428;2023-11-21T19:47:00;2.40;99.90
81488;DHT22;70897;52.464;13.428;2023-11-21T19:49:45;2.40;99.90
81488;DHT22;70897;52.464;13.428;2023-11-21T19:52:30;2.40;99.90
81488;DHT22;70897;52.464;13.428;2023-11-21T19:55:15;2.30;99.90
81488;DHT22;70897;52.464;13.428;2023-11-21T19:58:00;2.30;99.90
81488;DHT22;70897;52.464;13.428;2023-11-21T20:00:47;2.20;99.90
81488;DHT22;70897;52.464;13.428;2023-11-21T20:03:32;2.10;99.90
81488;DHT22;70897;52.464;13.428;2023-11-21T20:06:20;2.10;99.90
81488;DHT22;70897;52.464;13.428;2023-11-21T20:09:05;2.10;99.90
81488;DHT22;70897;52.464;13.428;2023-11-21T20:11:50;2.10;99.90
81488;DHT22;70897;52.464;13.428;2023-11-21T20:14:35;2.10;99.90
81488;DHT22;70897;52.464;13.428;2023-11-21T20:17:20;2.10;99.90
81488;DHT22;70897;52.464;13.428;2023-11-21T20:20:06;2.00;99.90
81488;DHT22;70897;52.464;13.428;2023-11-21T20:22:51;2.00;99.90
81488;DHT22;70897;52.464;13.428;2023-11-21T20:25:36;2.00;99.90
81488;DHT22;70897;52.464;13.428;2023-11-21T20:28:21;1.90;99.90
81488;DHT22;70897;52.464;13.428;2023-11-21T20:31:06;1.80;99.90
81488;DHT22;70897;52.464;13.428;2023-11-21T20:33:51;1.80;99.90
81488;DHT22;70897;52.464;13.428;2023-11-21T20:36:37;1.80;99.90
81488;DHT22;70897;52.464;13.428;2023-11-21T20:39:22;1.70;99.90
81488;DHT22;70897;52.464;13.428;2023-11-21T20:42:08;1.60;99.90
81488;DHT22;70897;52.464;13.428;2023-11-21T20:44:54;1.60;99.90
81488;DHT22;70897;52.464;13.428;2023-11-21T20:47:43;1.50;99.90
81488;DHT22;70897;52.464;13.428;2023-11-21T20:50:28;1.50;99.90
81488;DHT22;70897;52.464;13.428;2023-11-21T20:53:14;1.50;99.90
81488;DHT22;70897;52.464;13.428;2023-11-21T20:55:59;1.40;99.90
81488;DHT22;70897;52.464;13.428;2023-11-21T20:58:46;1.30;99.90
81488;DHT22;70897;52.464;13.428;2023-11-21T21:01:32;1.40;99.90
81488;DHT22;70897;52.464;13.428;2023-11-21T21:04:17;1.30;99.90
81488;DHT22;70897;52.464;13.428;2023-11-21T21:07:03;1.20;99.90
81488;DHT22;70897;52.464;13.428;2023-11-21T21:09:48;1.20;99.90
81488;DHT22;70897;52.464;13.428;2023-11-21T21:12:33;1.10;99.90
81488;DHT22;70897;52.464;13.428;2023-11-21T21:15:18;1.10;99.90
81488;DHT22;70897;52.464;13.428;2023-11-21T21:18:03;1.20;99.90
81488;DHT22;70897;52.464;13.428;2023-11-21T21:20:50;1.20;99.90
81488;DHT22;70897;52.464;13.428;2023-11-21T21:23:35;1.10;99.90
81488;DHT22;70897;52.464;13.428;2023-11-21T21:26:21;1.00;99.90
81488;DHT22;70897;52.464;13.428;2023-11-21T21:29:07;1.00;99.90
81488;DHT22;70897;52.464;13.428;2023-11-21T21:31:53;1.10;99.90
81488;DHT22;70897;52.464;13.428;2023-11-21T21:34:38;1.10;99.90
81488;DHT22;70897;52.464;13.428;2023-11-21T21:37:24;1.10;99.90
81488;DHT22;70897;52.464;13.428;2023-11-21T21:40:11;1.10;99.90
81488;DHT22;70897;52.464;13.428;2023-11-21T21:42:56;1.10;99.90
81488;DHT22;70897;52.464;13.428;2023-11-21T21:45:42;1.00;99.90
81488;DHT22;70897;52.464;13.428;2023-11-21T21:48:28;1.10;99.90
81488;DHT22;70897;52.464;13.428;2023-11-21T21:51:17;1.10;99.90
81488;DHT22;70897;52.464;13.428;2023-11-21T21:54:03;1.10;99.90
81488;DHT22;70897;52.464;13.428;2023-11-21T21:56:52;0.90;99.90
81488;DHT22;70897;52.464;13.428;2023-11-21T21:59:37;0.90;99.90
81488;DHT22;70897;52.464;13.428;2023-11-21T22:02:23;0.80;99.90
81488;DHT22;70897;52.464;13.428;2023-11-21T22:05:13;0.70;99.90
81488;DHT22;70897;52.464;13.428;2023-11-21T22:07:58;0.70;99.90
81488;DHT22;70897;52.464;13.428;2023-11-21T22:10:43;0.70;99.90
81488;DHT22;70897;52.464;13.428;2023-11-21T22:13:28;0.80;99.90
81488;DHT22;70897;52.464;13.428;2023-11-21T22:16:15;0.90;99.90
81488;DHT22;70897;52.464;13.428;2023-11-21T22:19:00;0.80;99.90
81488;DHT22;70897;52.464;13.428;2023-11-21T22:21:45;0.90;99.90
81488;DHT22;70897;52.464;13.428;2023-11-21T22:24:30;0.80;99.90
81488;DHT22;70897;52.464;13.428;2023-11-21T22:27:18;0.70;99.90
81488;DHT22;70897;52.464;13.428;2023-11-21T22:30:04;0.60;99.90
81488;DHT22;70897;52.464;13.428;2023-11-21T22:32:53;0.60;99.90
81488;DHT22;70897;52.464;13.428;2023-11-21T22:35:43;0.70;99.90
81488;DHT22;70897;52.464;13.428;2023-11-21T22:38:30;0.60;99.90
81488;DHT22;70897;52.464;13.428;2023-11-21T22:41:26;0.70;99.90
81488;DHT22;70897;52.464;13.428;2023-11-21T22:44:11;0.50;99.90
81488;DHT22;70897;52.464;13.428;2023-11-21T22:46:56;0.50;99.90
81488;DHT22;70897;52.464;13.428;2023-11-21T22:49:44;0.50;99.90
81488;DHT22;70897;52.464;13.428;2023-11-21T22:52:30;0.50;99.90
81488;DHT22;70897;52.464;13.428;2023-11-21T22:55:15;0.50;99.90
81488;DHT22;70897;52.464;13.428;2023-11-21T22:58:01;0.50;99.90
81488;DHT22;70897;52.464;13.428;2023-11-21T23:00:45;0.50;99.90
81488;DHT22;70897;52.464;13.428;2023-11-21T23:03:31;0.60;99.90
81488;DHT22;70897;52.464;13.428;2023-11-21T23:06:17;0.60;99.90
81488;DHT22;70897;52.464;13.428;2023-11-21T23:09:02;0.50;99.90
81488;DHT22;70897;52.464;13.428;2023-11-21T23:11:48;0.50;99.90
81488;DHT22;70897;52.464;13.428;2023-11-21T23:14:33;0.40;99.90
81488;DHT22;70897;52.464;13.428;2023-11-21T23:17:18;0.60;99.90
81488;DHT22;70897;52.464;13.428;2023-11-21T23:20:05;0.50;99.90
81488;DHT22;70897;52.464;13.428;2023-11-21T23:22:53;0.50;99.90
81488;DHT22;70897;52.464;13.428;2023-11-21T23:25:38;0.50;99.90
81488;DHT22;70897;52.464;13.428;2023-11-21T23:28:24;0.60;99.90
81488;DHT22;70897;52.464;13.428;2023-11-21T23:31:09;0.60;99.90
81488;DHT22;70897;52.464;13.428;2023-11-21T23:33:54;0.60;99.90
81488;DHT22;70897;52.464;13.428;2023-11-21T23:36:39;0.70;99.90
81488;DHT22;70897;52.464;13.428;2023-11-21T23:39:24;0.80;99.90
81488;DHT22;70897;52.464;13.428;2023-11-21T23:42:09;0.80;99.90
81488;DHT22;70897;52.464;13.428;2023-11-21T23:44:54;0.80;99.90
81488;DHT22;70897;52.464;13.428;2023-11-21T23:47:40;0.80;99.90
81488;DHT22;70897;52.464;13.428;2023-11-21T23:50:27;0.70;99.90
81488;DHT22;70897;52.464;13.428;2023-11-21T23:53:13;0.60;99.90
81488;DHT22;70897;52.464;13.428;2023-11-21T23:55:59;0.50;99.90
81488;DHT22;70897;52.464;13.428;2023-11-21T23:58:44;0.50;99.90
